Time;durP1;ratioP1;P1;durP2;ratioP2;P2;SDS_P1;SDS_P2;PMS_P1;PMS_P2;Temp;Humidity;BMP_temperature;BMP_pressure;BME280_temperature;BME280_humidity;BME280_pressure;Samples;Min_cycle;Max_cycle;Signal;HPM_P1;HPM_P2
2021/12/02 00:01:09;;;;;;;58.65;47.58;;;17.50;59.20;;;;;;4961675;28;86651;-74
2021/12/02 00:03:36;;;;;;;59.10;47.50;;;17.50;58.90;;;;;;4964296;28;86857;-74
2021/12/02 00:06:03;;;;;;;58.35;47.53;;;17.40;59.00;;;;;;4956278;28;87810;-73
2021/12/02 00:08:28;;;;;;;58.28;47.35;;;17.40;59.10;;;;;;4958746;28;89764;-73
2021/12/02 00:10:54;;;;;;;59.00;47.55;;;17.40;58.90;;;;;;4954828;28;88132;-74
2021/12/02 00:13:25;;;;;;;58.75;47.42;;;17.40;59.30;;;;;;4957911;28;86131;-73
2021/12/02 00:16:15;;;;;;;58.05;47.45;;;17.30;59.10;;;;;;4959225;28;88226;-73
2021/12/02 00:21:22;;;;;;;58.80;47.55;;;17.30;59.10;;;;;;4961584;28;87870;-73
2021/12/02 00:23:59;;;;;;;58.42;47.15;;;17.20;59.40;;;;;;4953891;28;86043;-73
2021/12/02 00:26:26;;;;;;;57.30;47.15;;;17.20;59.50;;;;;;4954172;28;90351;-74
2021/12/02 00:28:54;;;;;;;57.75;47.33;;;17.20;59.40;;;;;;4965197;28;88289;-74
2021/12/02 00:31:22;;;;;;;59.85;47.63;;;17.20;59.40;;;;;;4965300;28;88371;-73
2021/12/02 00:33:54;;;;;;;57.63;47.42;;;17.20;59.40;;;;;;4955241;28;86623;-73
2021/12/02 00:36:23;;;;;;;58.38;47.30;;;17.20;59.60;;;;;;4954412;28;89289;-73
2021/12/02 00:38:51;;;;;;;57.70;47.28;;;17.20;59.60;;;;;;4960563;28;86424;-73
2021/12/02 00:41:19;;;;;;;57.63;47.42;;;17.20;59.60;;;;;;4948542;28;86940;-73
2021/12/02 00:43:46;;;;;;;58.50;47.47;;;17.10;59.40;;;;;;4956355;28;87707;-72
2021/12/02 00:46:15;;;;;;;57.72;47.53;;;17.20;59.40;;;;;;4966045;28;91477;-73
2021/12/02 00:48:42;;;;;;;58.53;47.15;;;17.10;59.50;;;;;;4954368;28;87855;-73
2021/12/02 00:51:09;;;;;;;58.33;47.30;;;17.10;59.40;;;;;;4959526;28;85882;-74
2021/12/02 00:53:42;;;;;;;58.55;47.42;;;17.00;59.70;;;;;;4954194;28;87435;-73
2021/12/02 00:56:10;;;;;;;59.40;47.50;;;17.00;59.70;;;;;;4962385;28;85712;-73
2021/12/02 00:58:37;;;;;;;57.28;47.28;;;17.00;59.40;;;;;;4954044;28;89247;-74
2021/12/02 01:01:03;;;;;;;59.35;47.17;;;17.00;59.40;;;;;;4953473;28;86063;-74
2021/12/02 01:03:34;;;;;;;58.28;47.25;;;17.00;59.50;;;;;;4956495;28;87192;-73
2021/12/02 01:06:00;;;;;;;57.50;47.05;;;17.00;59.30;;;;;;4960817;28;87608;-74
2021/12/02 01:08:27;;;;;;;58.70;47.33;;;17.00;59.30;;;;;;4952142;28;86353;-74
2021/12/02 01:10:53;;;;;;;57.28;47.35;;;16.90;59.20;;;;;;4951904;28;91023;-73
2021/12/02 01:13:20;;;;;;;58.63;47.65;;;17.00;59.50;;;;;;4961959;28;85832;-74
2021/12/02 01:15:45;;;;;;;59.45;47.58;;;16.90;59.40;;;;;;4955355;28;88008;-74
2021/12/02 01:18:11;;;;;;;59.03;47.28;;;16.80;59.70;;;;;;4950462;28;87073;-74
2021/12/02 01:20:39;;;;;;;58.38;47.17;;;16.80;59.50;;;;;;4959921;28;85287;-74
2021/12/02 01:23:07;;;;;;;58.03;46.95;;;16.80;59.80;;;;;;4956490;28;88457;-73
2021/12/02 01:25:34;;;;;;;58.30;47.25;;;16.80;59.80;;;;;;4960762;28;85174;-73
2021/12/02 01:28:00;;;;;;;59.08;47.30;;;16.80;60.10;;;;;;4958815;28;87113;-74
2021/12/02 01:30:27;;;;;;;58.53;47.08;;;16.80;59.90;;;;;;4952362;28;86893;-74
2021/12/02 01:33:02;;;;;;;57.88;47.38;;;16.80;60.00;;;;;;4964548;28;86169;-73
2021/12/02 01:35:28;;;;;;;57.08;46.92;;;16.80;60.00;;;;;;4960744;28;86116;-75
2021/12/02 01:37:55;;;;;;;57.40;46.90;;;16.70;59.70;;;;;;4963586;28;86928;-74
2021/12/02 01:40:20;;;;;;;58.30;47.35;;;16.70;59.80;;;;;;4957609;28;86192;-73
2021/12/02 01:42:50;;;;;;;58.35;47.33;;;16.70;60.10;;;;;;4959644;28;86727;-74
2021/12/02 01:45:19;;;;;;;58.40;47.55;;;16.60;60.00;;;;;;4961692;28;86657;-74
2021/12/02 01:47:48;;;;;;;58.88;47.35;;;16.60;59.70;;;;;;4956051;28;87121;-74
2021/12/02 01:50:20;;;;;;;57.95;47.42;;;16.60;60.30;;;;;;4950920;28;85740;-74
2021/12/02 01:53:14;;;;;;;57.35;47.28;;;16.60;59.70;;;;;;4975532;28;85055;-74
2021/12/02 01:55:43;;;;;;;57.65;47.25;;;16.60;60.50;;;;;;4967519;28;86742;-74
2021/12/02 01:58:15;;;;;;;57.70;47.25;;;16.60;60.10;;;;;;4968845;28;87122;-74
2021/12/02 02:00:44;;;;;;;57.80;47.35;;;16.60;59.70;;;;;;4960365;28;86051;-74
2021/12/02 02:03:15;;;;;;;57.58;47.08;;;16.60;60.00;;;;;;4967144;28;87047;-74
2021/12/02 02:05:42;;;;;;;58.47;47.15;;;16.50;59.70;;;;;;4965546;28;87499;-74
2021/12/02 02:08:21;;;;;;;59.08;47.15;;;16.50;60.00;;;;;;4966094;28;88388;-74
2021/12/02 02:10:47;;;;;;;58.10;47.17;;;16.50;60.00;;;;;;4968892;28;86547;-75
2021/12/02 02:13:15;;;;;;;58.83;46.97;;;16.50;60.30;;;;;;4870009;27;90933;-73
2021/12/02 02:15:54;;;;;;;57.75;46.80;;;16.60;59.70;;;;;;681465;28;10089273;-74
2021/12/02 02:21:22;;;;;;;59.55;47.72;;;16.50;60.40;;;;;;4923370;28;85397;-74
2021/12/02 02:23:44;;;;;;;59.38;47.03;;;16.50;60.00;;;;;;4916722;28;86086;-74
2021/12/02 02:26:10;;;;;;;56.65;46.90;;;16.50;60.30;;;;;;4921985;28;85587;-74
2021/12/02 02:28:36;;;;;;;56.83;47.00;;;16.50;59.90;;;;;;4920192;28;85670;-74
2021/12/02 02:31:03;;;;;;;58.47;47.40;;;16.50;60.20;;;;;;4931315;28;87465;-75
2021/12/02 02:33:37;;;;;;;59.10;47.42;;;16.40;60.30;;;;;;4929754;28;86474;-74
2021/12/02 02:36:08;;;;;;;57.60;47.15;;;16.50;60.20;;;;;;4921211;28;86315;-74
2021/12/02 02:38:35;;;;;;;56.22;47.05;;;16.40;60.10;;;;;;4917054;28;85403;-74
2021/12/02 02:41:03;;;;;;;58.25;47.10;;;16.40;60.30;;;;;;4918073;28;87062;-74
2021/12/02 02:43:31;;;;;;;57.58;47.28;;;16.40;60.00;;;;;;4919941;28;86171;-74
2021/12/02 02:45:58;;;;;;;57.20;47.22;;;16.40;60.50;;;;;;4905567;28;85744;-74
2021/12/02 02:48:24;;;;;;;59.75;47.13;;;16.40;60.10;;;;;;4930039;28;87695;-74
2021/12/02 02:50:49;;;;;;;57.72;47.35;;;16.40;60.00;;;;;;4922396;28;87433;-74
2021/12/02 02:53:21;;;;;;;57.03;47.15;;;16.30;60.10;;;;;;4923894;28;85572;-74
2021/12/02 02:56:13;;;;;;;57.08;46.85;;;16.30;60.20;;;;;;4925025;28;87618;-74
2021/12/02 03:04:08;;;;;;;58.20;46.83;;;16.40;60.00;;;;;;4922347;28;85910;-74
2021/12/02 03:09:06;;;;;;;56.88;46.95;;;16.40;59.80;;;;;;4916534;28;85351;-74
2021/12/02 03:11:44;;;;;;;56.60;46.87;;;16.50;60.00;;;;;;4926187;28;84965;-73
2021/12/02 03:14:12;;;;;;;57.22;47.13;;;16.60;59.10;;;;;;4926688;28;86646;-74
2021/12/02 03:16:48;;;;;;;57.33;47.28;;;16.60;59.70;;;;;;4918195;28;89029;-74
2021/12/02 03:19:21;;;;;;;56.85;46.83;;;16.70;59.20;;;;;;4915476;28;85615;-73
2021/12/02 03:21:46;;;;;;;56.72;47.22;;;16.80;59.50;;;;;;4904698;28;86694;-73
2021/12/02 03:24:12;;;;;;;57.22;46.95;;;16.80;59.20;;;;;;4920723;28;87586;-73
2021/12/02 03:26:38;;;;;;;56.83;47.05;;;16.80;58.80;;;;;;4930942;28;88993;-74
2021/12/02 03:29:05;;;;;;;57.53;47.25;;;16.90;58.90;;;;;;4923479;28;92086;-73
2021/12/02 03:31:31;;;;;;;56.95;47.05;;;16.90;59.10;;;;;;4913957;28;88331;-74
2021/12/02 03:33:57;;;;;;;57.30;47.13;;;16.90;58.70;;;;;;4916296;28;86482;-74
2021/12/02 03:36:22;;;;;;;57.38;47.05;;;16.90;58.70;;;;;;4916675;28;87259;-74
2021/12/02 03:38:48;;;;;;;59.17;47.42;;;16.90;58.70;;;;;;4921161;28;85769;-74
2021/12/02 03:41:14;;;;;;;56.55;46.95;;;16.90;58.70;;;;;;4905255;28;88396;-73
2021/12/02 03:43:43;;;;;;;60.38;47.15;;;16.90;58.70;;;;;;4914636;28;86335;-74
2021/12/02 03:46:11;;;;;;;58.92;47.33;;;17.00;58.60;;;;;;4918813;28;87971;-74
2021/12/02 03:48:37;;;;;;;57.75;47.00;;;17.00;58.30;;;;;;4909484;28;86670;-74
2021/12/02 03:51:04;;;;;;;57.22;47.20;;;17.00;58.50;;;;;;4929656;28;86138;-74
2021/12/02 03:53:30;;;;;;;57.30;46.97;;;17.00;58.60;;;;;;4920251;28;89094;-74
2021/12/02 03:55:56;;;;;;;58.10;47.28;;;17.00;58.30;;;;;;4933206;28;86441;-74
2021/12/02 03:58:21;;;;;;;57.53;47.05;;;17.00;58.50;;;;;;4922951;28;86006;-74
2021/12/02 04:00:47;;;;;;;56.90;47.10;;;17.00;58.40;;;;;;4920088;28;86404;-74
2021/12/02 04:03:12;;;;;;;56.80;46.88;;;16.90;58.30;;;;;;4925557;28;85652;-74
2021/12/02 04:05:38;;;;;;;57.67;47.00;;;16.90;58.50;;;;;;4921590;28;86247;-74
2021/12/02 04:08:04;;;;;;;57.13;47.10;;;16.90;58.50;;;;;;4929473;28;85288;-74
2021/12/02 04:10:31;;;;;;;56.17;46.72;;;16.80;58.30;;;;;;4915968;28;85685;-74
2021/12/02 04:15:39;;;;;;;56.83;46.78;;;16.80;58.70;;;;;;4920884;28;86025;-74
2021/12/02 04:18:04;;;;;;;58.53;46.92;;;16.80;58.50;;;;;;4914708;28;85984;-75
2021/12/02 04:20:30;;;;;;;56.17;47.00;;;16.80;58.60;;;;;;4922449;28;85836;-75
2021/12/02 04:22:56;;;;;;;56.63;47.00;;;16.80;58.80;;;;;;4908294;28;86243;-74
2021/12/02 04:25:23;;;;;;;56.65;46.85;;;16.60;58.60;;;;;;4924216;28;85530;-74
2021/12/02 04:27:51;;;;;;;57.55;46.95;;;16.60;57.70;;;;;;4919030;28;85396;-74
2021/12/02 04:30:20;;;;;;;57.10;46.78;;;16.50;58.30;;;;;;4913429;28;86894;-74
2021/12/02 04:32:46;;;;;;;56.50;46.75;;;16.50;59.40;;;;;;4920932;28;86733;-73
2021/12/02 04:35:12;;;;;;;55.80;47.00;;;16.50;59.10;;;;;;4921398;28;88132;-74
2021/12/02 04:37:45;;;;;;;57.10;46.90;;;16.50;59.00;;;;;;4921285;28;85648;-74
2021/12/02 04:40:15;;;;;;;56.58;46.95;;;16.50;59.00;;;;;;4918767;28;87514;-74
2021/12/02 04:42:41;;;;;;;57.53;47.00;;;16.50;58.70;;;;;;4902298;28;91009;-74
2021/12/02 04:45:07;;;;;;;55.58;46.75;;;16.40;58.80;;;;;;4936035;28;85867;-74
2021/12/02 04:47:33;;;;;;;56.42;46.85;;;16.40;59.00;;;;;;4916238;28;86090;-73
2021/12/02 04:49:58;;;;;;;58.47;46.90;;;16.40;59.20;;;;;;4915751;28;86892;-73
2021/12/02 04:52:24;;;;;;;56.03;46.75;;;16.50;59.00;;;;;;4917923;28;85377;-74
2021/12/02 04:54:49;;;;;;;56.15;46.75;;;16.40;59.30;;;;;;4908127;28;86015;-74
2021/12/02 04:57:15;;;;;;;57.13;46.75;;;16.40;59.30;;;;;;4916606;28;85511;-73
2021/12/02 04:59:41;;;;;;;57.90;47.10;;;16.40;59.40;;;;;;4929295;28;85182;-74
2021/12/02 05:02:06;;;;;;;57.17;47.15;;;16.40;59.00;;;;;;4916098;28;87054;-74
2021/12/02 05:04:32;;;;;;;56.17;46.85;;;16.30;58.60;;;;;;4923285;28;87586;-74
2021/12/02 05:06:57;;;;;;;55.65;46.65;;;16.30;58.70;;;;;;4914451;28;86488;-74
2021/12/02 05:09:23;;;;;;;57.20;47.10;;;16.20;58.60;;;;;;4931653;28;85366;-73
2021/12/02 05:11:49;;;;;;;57.53;46.75;;;16.10;59.30;;;;;;4928257;28;86315;-73
2021/12/02 05:14:15;;;;;;;56.33;46.90;;;16.20;60.00;;;;;;4930826;28;86477;-73
2021/12/02 05:16:40;;;;;;;56.45;46.97;;;16.40;59.30;;;;;;4912362;28;85379;-72
2021/12/02 05:19:06;;;;;;;57.25;46.80;;;16.50;59.10;;;;;;4913241;28;87398;-73
2021/12/02 05:21:32;;;;;;;56.25;46.92;;;16.70;59.20;;;;;;4925953;28;85579;-73
2021/12/02 05:23:57;;;;;;;57.72;47.05;;;16.90;58.60;;;;;;4935219;28;86581;-73
2021/12/02 05:26:24;;;;;;;56.65;46.83;;;17.00;58.60;;;;;;4926153;28;87295;-73
2021/12/02 05:28:51;;;;;;;57.60;46.78;;;17.10;58.20;;;;;;4923603;28;87231;-74
2021/12/02 05:31:18;;;;;;;57.72;47.00;;;17.20;58.10;;;;;;4916131;28;87168;-73
2021/12/02 05:33:43;;;;;;;58.28;47.03;;;17.40;58.10;;;;;;4916356;28;86401;-73
2021/12/02 05:36:09;;;;;;;55.95;46.83;;;17.40;57.50;;;;;;4924308;28;87542;-72
2021/12/02 05:38:35;;;;;;;56.63;47.13;;;17.50;57.40;;;;;;4910456;28;86372;-73
2021/12/02 05:41:01;;;;;;;56.28;46.70;;;17.60;57.00;;;;;;4909333;28;85334;-72
2021/12/02 05:43:27;;;;;;;57.70;46.95;;;17.60;56.70;;;;;;4912394;28;86044;-73
2021/12/02 05:45:53;;;;;;;56.38;47.00;;;17.60;56.90;;;;;;4942899;28;90086;-73
2021/12/02 05:48:19;;;;;;;57.88;47.30;;;17.70;56.90;;;;;;4923014;28;87152;-72
2021/12/02 05:50:45;;;;;;;57.47;47.20;;;17.80;56.60;;;;;;4921878;28;86915;-73
2021/12/02 05:53:10;;;;;;;57.13;47.22;;;17.70;56.60;;;;;;4920989;28;86240;-72
2021/12/02 05:55:36;;;;;;;57.50;47.17;;;17.70;56.80;;;;;;4922714;28;90631;-73
2021/12/02 05:58:01;;;;;;;59.30;47.22;;;17.80;56.30;;;;;;4920319;28;91528;-74
2021/12/02 06:00:27;;;;;;;56.15;46.88;;;17.80;56.30;;;;;;4916340;28;88280;-73
2021/12/02 06:02:53;;;;;;;56.38;47.15;;;17.80;56.50;;;;;;4909228;28;86865;-74
2021/12/02 06:05:21;;;;;;;57.50;47.13;;;17.80;56.70;;;;;;4929860;28;86791;-75
2021/12/02 06:07:52;;;;;;;57.97;47.15;;;17.80;56.90;;;;;;4912893;28;86749;-74
2021/12/02 06:10:19;;;;;;;56.83;46.97;;;17.80;56.00;;;;;;4903224;28;91926;-74
2021/12/02 06:12:45;;;;;;;58.58;47.05;;;17.80;56.60;;;;;;4906440;28;89809;-74
2021/12/02 06:15:11;;;;;;;56.47;47.03;;;17.80;56.10;;;;;;4920390;28;90254;-74
2021/12/02 06:17:37;;;;;;;57.47;47.05;;;17.80;56.50;;;;;;4908462;28;90719;-74
2021/12/02 06:20:07;;;;;;;57.67;47.22;;;17.80;56.30;;;;;;4903886;28;92165;-74
2021/12/02 06:22:33;;;;;;;57.08;47.00;;;17.80;55.80;;;;;;4914964;28;89557;-74
2021/12/02 06:27:48;;;;;;;58.90;46.97;;;17.80;56.70;;;;;;4908628;28;92545;-75
2021/12/02 06:30:16;;;;;;;57.78;47.17;;;17.80;56.40;;;;;;4928188;28;93934;-74
2021/12/02 06:32:42;;;;;;;59.78;47.25;;;17.80;56.40;;;;;;4929678;28;90581;-75
2021/12/02 06:35:09;;;;;;;58.53;47.35;;;17.80;55.90;;;;;;4913376;28;91323;-76
2021/12/02 06:37:34;;;;;;;58.08;47.60;;;17.70;56.20;;;;;;4875500;28;90835;-76
2021/12/02 06:40:00;;;;;;;64.47;48.63;;;17.60;56.60;;;;;;4918148;28;92062;-75
2021/12/02 06:42:26;;;;;;;63.42;48.95;;;17.80;56.20;;;;;;4904821;28;93630;-76
2021/12/02 06:44:51;;;;;;;65.60;48.95;;;18.00;55.80;;;;;;4918605;28;91497;-77
2021/12/02 06:47:18;;;;;;;68.88;48.55;;;17.80;56.70;;;;;;4916010;28;91424;-77
2021/12/02 06:49:44;;;;;;;66.45;48.75;;;18.10;55.70;;;;;;4927638;28;89559;-77
2021/12/02 06:52:12;;;;;;;71.72;48.72;;;18.20;55.60;;;;;;4925459;28;92483;-77
2021/12/02 06:54:38;;;;;;;63.15;49.05;;;18.10;55.40;;;;;;4924988;28;91419;-77
2021/12/02 06:57:05;;;;;;;69.90;49.05;;;18.10;56.00;;;;;;4919089;28;90911;-77
2021/12/02 06:59:31;;;;;;;63.92;48.88;;;18.00;56.10;;;;;;4920958;28;90034;-76
2021/12/02 07:01:56;;;;;;;66.13;49.58;;;18.10;55.90;;;;;;4922548;28;90777;-76
2021/12/02 07:04:22;;;;;;;66.70;49.92;;;17.90;57.10;;;;;;4917327;28;90063;-76
2021/12/02 07:06:48;;;;;;;70.60;50.10;;;17.80;58.10;;;;;;4923370;28;90730;-76
2021/12/02 07:09:14;;;;;;;70.60;50.53;;;17.80;58.50;;;;;;4917115;28;93070;-76
2021/12/02 07:11:40;;;;;;;73.75;50.80;;;17.80;58.80;;;;;;4915812;28;91604;-77
2021/12/02 07:14:15;;;;;;;70.95;50.15;;;17.80;58.70;;;;;;4909531;28;91231;-78
2021/12/02 07:16:41;;;;;;;70.85;50.13;;;17.80;58.50;;;;;;4917566;28;91903;-76
2021/12/02 07:19:08;;;;;;;69.93;49.70;;;17.70;58.20;;;;;;4930730;28;90001;-76
2021/12/02 07:21:37;;;;;;;68.85;50.10;;;17.80;58.30;;;;;;4920455;28;90921;-75
2021/12/02 07:24:03;;;;;;;69.18;49.97;;;17.70;58.50;;;;;;4920582;28;90023;-74
2021/12/02 07:26:32;;;;;;;65.40;49.50;;;17.70;58.10;;;;;;4912063;28;90188;-75
2021/12/02 07:28:58;;;;;;;64.97;49.90;;;17.70;58.60;;;;;;4914617;28;92489;-74
2021/12/02 07:31:27;;;;;;;68.68;49.55;;;17.80;59.10;;;;;;4917693;28;90482;-74
2021/12/02 07:33:53;;;;;;;64.82;49.50;;;17.80;58.90;;;;;;4927547;28;93295;-74
2021/12/02 07:36:19;;;;;;;66.35;49.53;;;17.80;58.50;;;;;;4910414;28;91057;-74
2021/12/02 07:38:46;;;;;;;65.75;49.70;;;17.90;59.10;;;;;;4932739;28;91300;-75
2021/12/02 07:41:11;;;;;;;66.10;49.25;;;18.00;59.10;;;;;;4928133;28;91999;-74
2021/12/02 07:43:39;;;;;;;69.57;49.75;;;18.00;57.30;;;;;;4926706;28;90530;-74
2021/12/02 07:46:05;;;;;;;67.28;49.40;;;18.10;57.00;;;;;;4910795;28;90264;-75
2021/12/02 07:48:32;;;;;;;67.88;49.55;;;18.20;55.60;;;;;;4915228;28;90932;-76
2021/12/02 07:51:01;;;;;;;72.25;49.97;;;18.20;56.10;;;;;;4910473;28;93520;-74
2021/12/02 07:53:28;;;;;;;65.15;49.60;;;18.20;56.10;;;;;;4907786;28;93099;-74
2021/12/02 07:55:55;;;;;;;70.25;49.53;;;18.20;56.90;;;;;;4913588;28;90497;-74
2021/12/02 07:58:22;;;;;;;66.45;49.70;;;18.20;57.70;;;;;;4925541;28;92242;-74
2021/12/02 08:00:49;;;;;;;66.70;49.60;;;18.20;57.40;;;;;;4919277;28;91311;-75
2021/12/02 08:03:15;;;;;;;64.60;49.33;;;18.20;57.20;;;;;;4908187;28;91874;-75
2021/12/02 08:05:41;;;;;;;69.25;49.45;;;18.20;56.80;;;;;;4903030;28;91798;-75
2021/12/02 08:08:07;;;;;;;73.45;49.45;;;18.20;56.70;;;;;;4891470;28;93501;-75
2021/12/02 08:10:33;;;;;;;65.07;49.20;;;18.20;56.00;;;;;;4901029;28;90346;-75
2021/12/02 08:13:01;;;;;;;77.50;49.55;;;18.30;56.00;;;;;;4899298;28;94427;-75
2021/12/02 08:15:28;;;;;;;70.20;49.45;;;18.30;56.20;;;;;;4913019;28;97150;-74
2021/12/02 08:17:55;;;;;;;67.07;49.53;;;18.50;55.70;;;;;;4918691;28;90797;-75
2021/12/02 08:20:24;;;;;;;66.97;49.22;;;18.50;55.30;;;;;;4913726;28;90882;-76
2021/12/02 08:22:50;;;;;;;65.75;49.08;;;18.50;55.70;;;;;;4909146;28;91284;-75
2021/12/02 08:25:16;;;;;;;67.20;48.95;;;18.50;55.40;;;;;;4909368;28;91543;-76
2021/12/02 08:27:42;;;;;;;65.47;49.25;;;18.50;55.70;;;;;;4911602;28;94351;-75
2021/12/02 08:30:12;;;;;;;65.45;49.15;;;18.50;55.30;;;;;;4913013;28;92787;-76
2021/12/02 08:32:41;;;;;;;65.55;49.20;;;18.50;55.20;;;;;;4926759;28;90287;-77
2021/12/02 08:35:08;;;;;;;62.92;49.05;;;18.40;55.00;;;;;;4900892;28;91844;-77
2021/12/02 08:37:38;;;;;;;66.60;48.90;;;18.40;54.40;;;;;;4901279;28;93112;-77
2021/12/02 08:40:05;;;;;;;65.95;48.85;;;18.30;53.60;;;;;;4911156;28;89701;-77
2021/12/02 08:42:33;;;;;;;64.20;48.80;;;18.30;54.80;;;;;;4910639;28;89720;-78
2021/12/02 08:45:01;;;;;;;68.10;48.83;;;18.40;54.50;;;;;;4919160;28;90309;-75
2021/12/02 08:47:28;;;;;;;64.47;48.80;;;18.30;54.70;;;;;;4899064;28;91831;-75
2021/12/02 08:49:55;;;;;;;64.10;48.67;;;18.40;54.80;;;;;;4902653;28;90505;-76
2021/12/02 08:52:24;;;;;;;66.22;49.05;;;18.40;55.00;;;;;;4902471;28;94267;-75
2021/12/02 08:54:51;;;;;;;65.80;48.85;;;18.50;55.10;;;;;;4924021;28;93463;-74
2021/12/02 08:57:18;;;;;;;67.25;48.90;;;18.40;55.50;;;;;;4902440;28;91314;-74
2021/12/02 08:59:44;;;;;;;63.47;48.65;;;18.40;55.00;;;;;;4922234;28;90092;-75
2021/12/02 09:02:10;;;;;;;66.75;48.55;;;18.40;54.40;;;;;;4909000;28;90508;-74
2021/12/02 09:04:36;;;;;;;63.45;48.95;;;18.40;53.20;;;;;;4910072;28;89178;-75
2021/12/02 09:07:02;;;;;;;64.30;49.05;;;18.40;53.20;;;;;;4910878;28;92935;-75
2021/12/02 09:09:28;;;;;;;63.22;48.90;;;18.50;53.00;;;;;;4901200;28;91439;-75
2021/12/02 09:11:55;;;;;;;62.30;48.72;;;18.40;53.50;;;;;;4912487;28;92398;-75
2021/12/02 09:14:21;;;;;;;65.07;49.00;;;18.40;54.30;;;;;;4910459;28;90866;-74
2021/12/02 09:16:48;;;;;;;62.97;48.78;;;18.50;54.60;;;;;;4910715;28;93439;-75
2021/12/02 09:19:14;;;;;;;69.55;49.20;;;18.50;54.90;;;;;;4924661;28;89602;-74
2021/12/02 09:21:39;;;;;;;60.35;48.35;;;18.70;54.80;;;;;;4906695;28;93778;-74
2021/12/02 09:24:05;;;;;;;65.13;49.15;;;18.70;55.10;;;;;;4897776;28;93619;-73
2021/12/02 09:26:31;;;;;;;64.40;48.95;;;18.80;55.00;;;;;;4919735;28;92329;-74
2021/12/02 09:28:58;;;;;;;63.85;48.90;;;18.80;54.10;;;;;;4900910;28;92341;-74
2021/12/02 09:31:24;;;;;;;61.22;48.60;;;18.80;53.70;;;;;;4920819;28;91636;-77
2021/12/02 09:33:51;;;;;;;61.67;48.95;;;18.80;53.70;;;;;;4922439;28;92448;-77
2021/12/02 09:36:17;;;;;;;61.83;48.95;;;18.80;54.00;;;;;;4911899;28;91636;-73
2021/12/02 09:38:44;;;;;;;64.05;48.70;;;18.90;53.30;;;;;;4915631;28;89964;-74
2021/12/02 09:41:10;;;;;;;65.82;48.72;;;18.90;53.40;;;;;;4914421;28;92995;-74
2021/12/02 09:43:35;;;;;;;65.57;48.85;;;19.00;52.40;;;;;;4922497;28;96216;-74
2021/12/02 09:46:01;;;;;;;65.63;49.30;;;19.00;51.80;;;;;;4909185;28;95600;-74
2021/12/02 09:48:28;;;;;;;63.97;49.08;;;19.00;51.40;;;;;;4905752;28;93802;-74
2021/12/02 09:51:04;;;;;;;64.07;49.05;;;19.00;52.00;;;;;;4900639;28;89630;-74
2021/12/02 09:53:35;;;;;;;64.72;49.28;;;19.00;51.70;;;;;;4910048;28;90531;-73
2021/12/02 09:58:29;;;;;;;66.43;48.90;;;18.90;51.30;;;;;;4908147;28;90750;-74
2021/12/02 10:01:06;;;;;;;66.93;49.17;;;19.00;50.90;;;;;;4905041;28;92071;-74
2021/12/02 10:03:34;;;;;;;67.25;49.08;;;19.00;50.10;;;;;;4906190;28;94547;-75
2021/12/02 10:06:16;;;;;;;63.97;49.40;;;19.00;50.80;;;;;;4897171;28;91671;-76
2021/12/02 10:08:52;;;;;;;64.43;49.17;;;18.90;50.20;;;;;;4904805;28;91917;-75
2021/12/02 10:14:24;;;;;;;63.63;49.05;;;19.00;49.90;;;;;;4918046;28;91554;-75
2021/12/02 10:17:04;;;;;;;64.93;49.28;;;19.00;49.90;;;;;;4904609;28;95977;-76
2021/12/02 10:19:30;;;;;;;64.70;48.85;;;19.00;49.80;;;;;;4929387;28;90835;-75
2021/12/02 10:22:10;;;;;;;65.97;49.08;;;18.90;50.10;;;;;;4923663;28;97723;-74
2021/12/02 10:24:43;;;;;;;65.07;49.30;;;19.00;50.70;;;;;;4910071;28;94757;-74
2021/12/02 10:27:10;;;;;;;66.40;49.30;;;18.90;50.60;;;;;;4923053;28;90565;-75
2021/12/02 10:29:38;;;;;;;68.55;49.55;;;18.90;50.80;;;;;;4917729;28;94680;-76
2021/12/02 10:32:10;;;;;;;64.45;49.40;;;18.90;51.00;;;;;;4915386;28;92984;-77
2021/12/02 10:34:49;;;;;;;66.53;49.25;;;18.80;50.80;;;;;;4913319;28;90097;-76
2021/12/02 10:37:17;;;;;;;63.65;49.53;;;18.80;50.90;;;;;;4910453;28;90815;-76
2021/12/02 10:39:56;;;;;;;69.10;49.05;;;18.80;50.70;;;;;;4915595;28;90940;-75
2021/12/02 10:42:22;;;;;;;63.28;49.10;;;18.80;51.20;;;;;;4919916;28;90445;-75
2021/12/02 10:44:48;;;;;;;66.65;49.28;;;18.70;51.90;;;;;;4917250;28;93729;-75
2021/12/02 10:47:15;;;;;;;66.18;49.47;;;18.80;51.80;;;;;;4916327;28;91571;-74
2021/12/02 10:49:42;;;;;;;64.47;49.22;;;18.80;51.70;;;;;;4920105;28;92257;-76
2021/12/02 10:52:16;;;;;;;66.18;49.30;;;18.80;52.10;;;;;;4915977;28;90947;-75
2021/12/02 10:54:50;;;;;;;68.00;49.70;;;18.70;52.10;;;;;;4919122;28;90169;-75
2021/12/02 10:57:19;;;;;;;63.53;49.50;;;18.70;52.00;;;;;;4924981;28;89773;-75
2021/12/02 11:00:09;;;;;;;66.20;49.38;;;18.70;52.00;;;;;;4916084;28;89964;-75
2021/12/02 11:02:38;;;;;;;64.40;49.10;;;18.60;52.00;;;;;;4922208;28;90571;-76
2021/12/02 11:05:20;;;;;;;66.97;49.28;;;18.60;52.10;;;;;;4909233;28;91591;-78
2021/12/02 11:08:06;;;;;;;65.05;49.35;;;18.60;52.10;;;;;;4908150;28;90362;-78
2021/12/02 11:10:40;;;;;;;62.85;49.05;;;18.60;52.10;;;;;;4902418;28;89342;-75
2021/12/02 11:13:08;;;;;;;68.03;49.10;;;18.50;51.90;;;;;;4913061;28;92192;-76
2021/12/02 11:15:37;;;;;;;62.75;49.35;;;18.60;52.20;;;;;;4917065;28;94340;-77
2021/12/02 11:18:08;;;;;;;64.35;49.05;;;18.60;52.10;;;;;;4929627;28;91216;-77
2021/12/02 11:20:35;;;;;;;67.22;49.25;;;18.60;52.30;;;;;;4939367;28;89434;-77
2021/12/02 11:23:08;;;;;;;63.25;49.25;;;18.60;51.80;;;;;;4921138;28;90260;-76
2021/12/02 11:25:37;;;;;;;65.35;49.35;;;18.70;52.20;;;;;;4932349;28;91529;-77
2021/12/02 11:28:08;;;;;;;65.03;49.50;;;18.70;52.00;;;;;;4918757;28;94338;-77
2021/12/02 11:30:35;;;;;;;66.10;49.95;;;18.80;51.90;;;;;;4919911;28;89968;-76
2021/12/02 11:33:04;;;;;;;63.35;49.53;;;18.90;52.00;;;;;;4926505;28;90332;-76
2021/12/02 11:35:45;;;;;;;64.70;49.45;;;19.00;51.80;;;;;;4928756;28;91813;-76
2021/12/02 11:38:17;;;;;;;62.75;49.13;;;19.00;51.60;;;;;;4925162;28;89789;-77
2021/12/02 11:40:49;;;;;;;64.15;49.22;;;19.10;51.80;;;;;;4921614;28;89508;-77
2021/12/02 11:43:18;;;;;;;62.95;49.20;;;19.10;51.90;;;;;;4916518;28;92123;-76
2021/12/02 11:45:49;;;;;;;63.22;49.10;;;19.10;51.80;;;;;;4934549;28;91163;-76
2021/12/02 11:48:19;;;;;;;64.97;49.35;;;19.20;51.80;;;;;;4931095;28;90069;-76
2021/12/02 11:50:47;;;;;;;63.17;49.22;;;19.20;51.80;;;;;;4920980;28;93381;-77
2021/12/02 11:53:14;;;;;;;63.58;49.35;;;19.20;51.50;;;;;;4929578;28;89512;-76
2021/12/02 11:55:42;;;;;;;64.30;49.22;;;19.30;51.80;;;;;;4926662;28;92681;-77
2021/12/02 11:58:08;;;;;;;63.72;49.72;;;19.30;51.40;;;;;;4933115;28;90060;-77
2021/12/02 12:00:35;;;;;;;63.05;48.90;;;19.40;51.70;;;;;;4918066;28;90785;-77
2021/12/02 12:03:14;;;;;;;64.20;49.20;;;19.30;51.90;;;;;;4943876;28;90073;-77
2021/12/02 12:06:01;;;;;;;63.38;49.15;;;19.30;51.60;;;;;;4928917;28;90387;-76
2021/12/02 12:08:40;;;;;;;65.85;49.28;;;19.30;51.60;;;;;;4923607;28;91571;-76
2021/12/02 12:11:28;;;;;;;64.38;49.38;;;19.30;51.40;;;;;;4921460;28;89551;-76
2021/12/02 12:13:59;;;;;;;65.15;49.30;;;19.30;51.50;;;;;;4930946;28;89383;-78
2021/12/02 12:16:35;;;;;;;62.75;48.97;;;19.30;51.80;;;;;;4934584;28;91790;-77
2021/12/02 12:19:16;;;;;;;63.05;49.15;;;19.20;51.70;;;;;;4916912;28;91183;-78
2021/12/02 12:21:47;;;;;;;62.72;48.72;;;19.10;52.20;;;;;;4925347;28;92306;-76
2021/12/02 12:24:15;;;;;;;63.55;49.03;;;19.10;52.10;;;;;;4928571;28;89973;-76
2021/12/02 12:26:44;;;;;;;64.15;49.08;;;19.00;52.70;;;;;;4924756;28;88898;-76
2021/12/02 12:29:12;;;;;;;62.60;48.70;;;19.00;52.50;;;;;;4930079;28;90080;-76
2021/12/02 12:40:09;;;;;;;60.58;48.35;;;18.80;53.40;;;;;;4916011;28;90134;-76
2021/12/02 12:42:40;;;;;;;64.28;48.65;;;18.70;53.60;;;;;;4912866;28;90646;-76
2021/12/02 12:45:09;;;;;;;62.53;48.05;;;18.70;53.90;;;;;;4915421;28;97405;-76
2021/12/02 12:47:52;;;;;;;60.47;48.35;;;18.70;53.40;;;;;;4901937;28;90958;-76
2021/12/02 12:50:33;;;;;;;61.30;48.10;;;18.60;54.00;;;;;;4910435;28;90427;-77
2021/12/02 12:53:03;;;;;;;67.95;48.55;;;18.60;53.50;;;;;;4904527;28;92435;-76
2021/12/02 12:55:59;;;;;;;61.50;48.33;;;18.60;54.40;;;;;;4909261;28;92591;-76
2021/12/02 12:58:30;;;;;;;66.55;48.53;;;18.70;54.70;;;;;;4916431;28;92169;-76
2021/12/02 13:01:02;;;;;;;67.70;48.05;;;18.70;54.60;;;;;;4918216;28;91300;-76
2021/12/02 13:03:44;;;;;;;61.88;48.50;;;18.70;54.30;;;;;;4907530;28;90233;-76
2021/12/02 13:06:17;;;;;;;65.50;48.78;;;18.70;54.30;;;;;;4907073;28;91568;-76